sensor_id;sensor_type;location;lat;lon;timestamp;pressure;altitude;pressure_sealevel;temperature;humidity
30421;BME280;17218;54.070;10.012;2022-11-25T00:02:22;101146.34;;;2.70;100.00
30421;BME280;17218;54.070;10.012;2022-11-25T00:04:48;101134.50;;;2.74;100.00
30421;BME280;17218;54.070;10.012;2022-11-25T00:07:15;101134.38;;;2.69;100.00
30421;BME280;17218;54.070;10.012;2022-11-25T00:09:41;101117.69;;;2.81;100.00
30421;BME280;17218;54.070;10.012;2022-11-25T00:12:08;101115.25;;;2.85;100.00
30421;BME280;17218;54.070;10.012;2022-11-25T00:14:36;101118.81;;;2.91;100.00
30421;BME280;17218;54.070;10.012;2022-11-25T00:17:03;101122.91;;;2.85;100.00
30421;BME280;17218;54.070;10.012;2022-11-25T00:19:29;101121.31;;;2.89;100.00
30421;BME280;17218;54.070;10.012;2022-11-25T00:21:56;101124.16;;;2.98;100.00
30421;BME280;17218;54.070;10.012;2022-11-25T00:24:23;101115.69;;;3.00;100.00
30421;BME280;17218;54.070;10.012;2022-11-25T00:26:49;101112.25;;;2.99;100.00
30421;BME280;17218;54.070;10.012;2022-11-25T00:29:16;101107.81;;;2.93;100.00
30421;BME280;17218;54.070;10.012;2022-11-25T00:31:44;101113.97;;;3.00;100.00
30421;BME280;17218;54.070;10.012;2022-11-25T00:34:13;101116.28;;;2.92;100.00
30421;BME280;17218;54.070;10.012;2022-11-25T00:36:39;101107.72;;;2.90;100.00
30421;BME280;17218;54.070;10.012;2022-11-25T00:39:09;101104.41;;;2.94;100.00
30421;BME280;17218;54.070;10.012;2022-11-25T00:41:36;101108.69;;;2.94;100.00
30421;BME280;17218;54.070;10.012;2022-11-25T00:44:20;101110.41;;;2.95;100.00
30421;BME280;17218;54.070;10.012;2022-11-25T00:47:06;101119.88;;;2.97;100.00
30421;BME280;17218;54.070;10.012;2022-11-25T00:49:34;101121.94;;;3.09;100.00
30421;BME280;17218;54.070;10.012;2022-11-25T00:52:01;101116.78;;;3.08;100.00
30421;BME280;17218;54.070;10.012;2022-11-25T00:54:27;101122.13;;;3.16;100.00
30421;BME280;17218;54.070;10.012;2022-11-25T00:56:54;101131.13;;;3.03;100.00
30421;BME280;17218;54.070;10.012;2022-11-25T00:59:21;101129.44;;;3.03;100.00
30421;BME280;17218;54.070;10.012;2022-11-25T01:01:48;101133.69;;;3.03;100.00
30421;BME280;17218;54.070;10.012;2022-11-25T01:04:16;101135.38;;;3.02;100.00
30421;BME280;17218;54.070;10.012;2022-11-25T01:06:43;101129.97;;;2.93;100.00
30421;BME280;17218;54.070;10.012;2022-11-25T01:09:10;101130.00;;;2.94;100.00
30421;BME280;17218;54.070;10.012;2022-11-25T01:11:38;101131.09;;;3.01;100.00
30421;BME280;17218;54.070;10.012;2022-11-25T01:14:05;101132.78;;;3.01;100.00
30421;BME280;17218;54.070;10.012;2022-11-25T01:16:33;101118.38;;;3.04;100.00
30421;BME280;17218;54.070;10.012;2022-11-25T01:19:00;101126.09;;;3.06;100.00
30421;BME280;17218;54.070;10.012;2022-11-25T01:21:30;101126.41;;;3.17;100.00
30421;BME280;17218;54.070;10.012;2022-11-25T01:23:58;101128.06;;;3.15;100.00
30421;BME280;17218;54.070;10.012;2022-11-25T01:26:26;101116.84;;;3.11;100.00
30421;BME280;17218;54.070;10.012;2022-11-25T01:28:54;101119.28;;;3.06;100.00
30421;BME280;17218;54.070;10.012;2022-11-25T01:31:23;101121.00;;;3.07;100.00
30421;BME280;17218;54.070;10.012;2022-11-25T01:33:52;101117.31;;;2.97;100.00
30421;BME280;17218;54.070;10.012;2022-11-25T01:36:19;101100.31;;;3.00;100.00
30421;BME280;17218;54.070;10.012;2022-11-25T01:38:50;101100.22;;;2.96;100.00
30421;BME280;17218;54.070;10.012;2022-11-25T01:41:17;101089.34;;;3.04;100.00
30421;BME280;17218;54.070;10.012;2022-11-25T01:44:06;101087.38;;;2.95;100.00
30421;BME280;17218;54.070;10.012;2022-11-25T01:46:51;101088.44;;;2.74;100.00
30421;BME280;17218;54.070;10.012;2022-11-25T01:49:23;101092.28;;;2.59;100.00
30421;BME280;17218;54.070;10.012;2022-11-25T01:51:53;101095.72;;;2.60;100.00
30421;BME280;17218;54.070;10.012;2022-11-25T01:54:25;101088.03;;;2.60;100.00
30421;BME280;17218;54.070;10.012;2022-11-25T01:56:54;101097.34;;;2.58;100.00
30421;BME280;17218;54.070;10.012;2022-11-25T01:59:22;101101.59;;;2.57;100.00
30421;BME280;17218;54.070;10.012;2022-11-25T02:01:49;101107.50;;;2.55;100.00
30421;BME280;17218;54.070;10.012;2022-11-25T02:04:18;101102.47;;;2.58;100.00
30421;BME280;17218;54.070;10.012;2022-11-25T02:06:48;101099.66;;;2.50;100.00
30421;BME280;17218;54.070;10.012;2022-11-25T02:09:17;101097.88;;;2.47;100.00
30421;BME280;17218;54.070;10.012;2022-11-25T02:11:48;101090.69;;;2.63;100.00
30421;BME280;17218;54.070;10.012;2022-11-25T02:14:17;101087.59;;;2.73;100.00
30421;BME280;17218;54.070;10.012;2022-11-25T02:16:45;101087.59;;;2.73;100.00
30421;BME280;17218;54.070;10.012;2022-11-25T02:19:19;101089.38;;;2.76;100.00
30421;BME280;17218;54.070;10.012;2022-11-25T02:21:51;101091.66;;;2.67;100.00
30421;BME280;17218;54.070;10.012;2022-11-25T02:24:27;101100.25;;;2.69;100.00
30421;BME280;17218;54.070;10.012;2022-11-25T02:26:56;101095.31;;;2.75;100.00
30421;BME280;17218;54.070;10.012;2022-11-25T02:29:23;101097.50;;;2.90;100.00
30421;BME280;17218;54.070;10.012;2022-11-25T02:31:50;101095.13;;;2.98;100.00
30421;BME280;17218;54.070;10.012;2022-11-25T02:34:17;101100.16;;;2.95;100.00
30421;BME280;17218;54.070;10.012;2022-11-25T02:36:43;101096.06;;;3.00;100.00
30421;BME280;17218;54.070;10.012;2022-11-25T02:39:10;101097.97;;;3.07;100.00
30421;BME280;17218;54.070;10.012;2022-11-25T02:41:39;101099.81;;;3.12;100.00
30421;BME280;17218;54.070;10.012;2022-11-25T02:44:10;101101.44;;;3.09;100.00
30421;BME280;17218;54.070;10.012;2022-11-25T02:46:37;101087.88;;;3.12;100.00
30421;BME280;17218;54.070;10.012;2022-11-25T02:49:03;101091.66;;;2.96;100.00
30421;BME280;17218;54.070;10.012;2022-11-25T02:51:31;101102.53;;;2.89;100.00
30421;BME280;17218;54.070;10.012;2022-11-25T02:53:58;101088.56;;;2.77;100.00
30421;BME280;17218;54.070;10.012;2022-11-25T02:56:28;101091.16;;;2.79;100.00
30421;BME280;17218;54.070;10.012;2022-11-25T02:58:55;101096.66;;;2.91;100.00
30421;BME280;17218;54.070;10.012;2022-11-25T03:01:23;101101.44;;;2.80;100.00
30421;BME280;17218;54.070;10.012;2022-11-25T03:03:50;101099.56;;;2.74;100.00
30421;BME280;17218;54.070;10.012;2022-11-25T03:06:17;101102.31;;;2.81;100.00
30421;BME280;17218;54.070;10.012;2022-11-25T03:08:43;101101.44;;;2.80;100.00
30421;BME280;17218;54.070;10.012;2022-11-25T03:11:10;101102.59;;;2.90;100.00
30421;BME280;17218;54.070;10.012;2022-11-25T03:13:37;101103.16;;;2.81;100.00
30421;BME280;17218;54.070;10.012;2022-11-25T03:16:04;101107.31;;;2.78;100.00
30421;BME280;17218;54.070;10.012;2022-11-25T03:18:32;101099.72;;;2.79;100.00
30421;BME280;17218;54.070;10.012;2022-11-25T03:20:59;101100.91;;;2.91;100.00
30421;BME280;17218;54.070;10.012;2022-11-25T03:23:26;101102.81;;;2.98;100.00
30421;BME280;17218;54.070;10.012;2022-11-25T03:25:52;101093.38;;;2.95;100.00
30421;BME280;17218;54.070;10.012;2022-11-25T03:28:19;101089.81;;;2.90;100.00
30421;BME280;17218;54.070;10.012;2022-11-25T03:30:46;101095.59;;;2.84;100.00
30421;BME280;17218;54.070;10.012;2022-11-25T03:33:12;101088.84;;;2.86;100.00
30421;BME280;17218;54.070;10.012;2022-11-25T03:35:40;101089.38;;;2.76;100.00
30421;BME280;17218;54.070;10.012;2022-11-25T03:38:07;101090.88;;;2.69;100.00
30421;BME280;17218;54.070;10.012;2022-11-25T03:40:33;101095.97;;;2.68;100.00
30421;BME280;17218;54.070;10.012;2022-11-25T03:43:00;101097.25;;;2.55;100.00
30421;BME280;17218;54.070;10.012;2022-11-25T03:45:26;101101.25;;;2.46;100.00
30421;BME280;17218;54.070;10.012;2022-11-25T03:47:53;101098.50;;;2.40;100.00
30421;BME280;17218;54.070;10.012;2022-11-25T03:50:20;101103.97;;;2.51;100.00
30421;BME280;17218;54.070;10.012;2022-11-25T03:52:48;101110.72;;;2.49;100.00
30421;BME280;17218;54.070;10.012;2022-11-25T03:55:14;101109.16;;;2.54;100.00
30421;BME280;17218;54.070;10.012;2022-11-25T03:57:41;101116.00;;;2.55;100.00
30421;BME280;17218;54.070;10.012;2022-11-25T04:00:11;101102.50;;;2.59;100.00
30421;BME280;17218;54.070;10.012;2022-11-25T04:02:38;101103.28;;;2.57;100.00
30421;BME280;17218;54.070;10.012;2022-11-25T04:05:05;101112.50;;;2.52;100.00
30421;BME280;17218;54.070;10.012;2022-11-25T04:07:32;101102.84;;;2.43;100.00
30421;BME280;17218;54.070;10.012;2022-11-25T04:10:00;101108.97;;;2.48;100.00
30421;BME280;17218;54.070;10.012;2022-11-25T04:12:26;101107.16;;;2.44;100.00
30421;BME280;17218;54.070;10.012;2022-11-25T04:15:11;101103.72;;;2.43;100.00
30421;BME280;17218;54.070;10.012;2022-11-25T04:17:38;101110.94;;;2.29;100.00
30421;BME280;17218;54.070;10.012;2022-11-25T04:20:05;101109.81;;;2.21;100.00
30421;BME280;17218;54.070;10.012;2022-11-25T04:22:32;101112.53;;;2.25;100.00
30421;BME280;17218;54.070;10.012;2022-11-25T04:25:00;101111.66;;;2.25;100.00
30421;BME280;17218;54.070;10.012;2022-11-25T04:27:27;101111.91;;;2.33;100.00
30421;BME280;17218;54.070;10.012;2022-11-25T04:29:53;101106.97;;;2.39;100.00
30421;BME280;17218;54.070;10.012;2022-11-25T04:32:20;101104.00;;;2.25;100.00
30421;BME280;17218;54.070;10.012;2022-11-25T04:34:47;101100.94;;;2.37;100.00
30421;BME280;17218;54.070;10.012;2022-11-25T04:37:13;101105.41;;;2.43;100.00
30421;BME280;17218;54.070;10.012;2022-11-25T04:39:40;101099.63;;;2.48;100.00
30421;BME280;17218;54.070;10.012;2022-11-25T04:42:08;101086.56;;;2.41;100.00
30421;BME280;17218;54.070;10.012;2022-11-25T04:44:52;101091.63;;;2.39;100.00
30421;BME280;17218;54.070;10.012;2022-11-25T04:47:19;101089.97;;;2.40;100.00
30421;BME280;17218;54.070;10.012;2022-11-25T04:49:45;101089.38;;;2.48;100.00
30421;BME280;17218;54.070;10.012;2022-11-25T04:52:12;101091.59;;;2.65;100.00
30421;BME280;17218;54.070;10.012;2022-11-25T04:54:39;101095.66;;;2.58;100.00
30421;BME280;17218;54.070;10.012;2022-11-25T04:57:05;101083.88;;;2.64;100.00
30421;BME280;17218;54.070;10.012;2022-11-25T04:59:33;101087.13;;;2.58;100.00
30421;BME280;17218;54.070;10.012;2022-11-25T05:02:05;101097.31;;;2.56;100.00
30421;BME280;17218;54.070;10.012;2022-11-25T05:04:32;101104.22;;;2.59;100.00
30421;BME280;17218;54.070;10.012;2022-11-25T05:06:58;101097.59;;;2.66;100.00
30421;BME280;17218;54.070;10.012;2022-11-25T05:09:25;101100.97;;;2.65;100.00
30421;BME280;17218;54.070;10.012;2022-11-25T05:11:52;101104.09;;;2.56;100.00
30421;BME280;17218;54.070;10.012;2022-11-25T05:14:18;101099.63;;;2.48;100.00
30421;BME280;17218;54.070;10.012;2022-11-25T05:16:46;101103.94;;;2.49;100.00
30421;BME280;17218;54.070;10.012;2022-11-25T05:19:13;101106.38;;;2.46;100.00
30421;BME280;17218;54.070;10.012;2022-11-25T05:21:40;101116.81;;;2.53;100.00
30421;BME280;17218;54.070;10.012;2022-11-25T05:24:06;101107.16;;;2.44;100.00
30421;BME280;17218;54.070;10.012;2022-11-25T05:26:33;101112.25;;;2.44;100.00
30421;BME280;17218;54.070;10.012;2022-11-25T05:29:00;101112.16;;;2.41;100.00
30421;BME280;17218;54.070;10.012;2022-11-25T05:31:26;101105.00;;;2.30;100.00
30421;BME280;17218;54.070;10.012;2022-11-25T05:33:54;101104.16;;;2.31;100.00
30421;BME280;17218;54.070;10.012;2022-11-25T05:36:21;101104.47;;;2.41;100.00
30421;BME280;17218;54.070;10.012;2022-11-25T05:38:47;101110.81;;;2.52;100.00
30421;BME280;17218;54.070;10.012;2022-11-25T05:41:14;101111.53;;;2.48;100.00
30421;BME280;17218;54.070;10.012;2022-11-25T05:43:41;101109.94;;;2.52;100.00
30421;BME280;17218;54.070;10.012;2022-11-25T05:46:08;101107.28;;;2.48;100.00
30421;BME280;17218;54.070;10.012;2022-11-25T05:48:35;101103.50;;;2.37;100.00
30421;BME280;17218;54.070;10.012;2022-11-25T05:51:04;101106.81;;;2.33;100.00
30421;BME280;17218;54.070;10.012;2022-11-25T05:53:31;101107.69;;;2.35;100.00
30421;BME280;17218;54.070;10.012;2022-11-25T05:56:00;101106.53;;;2.25;100.00
30421;BME280;17218;54.070;10.012;2022-11-25T05:58:27;101095.31;;;2.20;100.00
30421;BME280;17218;54.070;10.012;2022-11-25T06:00:54;101093.81;;;2.26;100.00
30421;BME280;17218;54.070;10.012;2022-11-25T06:03:22;101098.03;;;2.26;100.00
30421;BME280;17218;54.070;10.012;2022-11-25T06:05:50;101095.91;;;2.38;100.00
30421;BME280;17218;54.070;10.012;2022-11-25T06:08:17;101103.84;;;2.48;100.00
30421;BME280;17218;54.070;10.012;2022-11-25T06:10:44;101103.09;;;2.50;100.00
30421;BME280;17218;54.070;10.012;2022-11-25T06:13:11;101111.69;;;2.53;100.00
30421;BME280;17218;54.070;10.012;2022-11-25T06:15:39;101121.03;;;2.52;100.00
30421;BME280;17218;54.070;10.012;2022-11-25T06:18:06;101119.41;;;2.54;100.00
30421;BME280;17218;54.070;10.012;2022-11-25T06:20:32;101113.38;;;2.52;100.00
30421;BME280;17218;54.070;10.012;2022-11-25T06:22:59;101113.31;;;2.50;100.00
30421;BME280;17218;54.070;10.012;2022-11-25T06:25:27;101096.69;;;2.64;100.00
30421;BME280;17218;54.070;10.012;2022-11-25T06:27:54;101103.75;;;2.72;100.00
30421;BME280;17218;54.070;10.012;2022-11-25T06:30:21;101096.72;;;2.65;100.00
30421;BME280;17218;54.070;10.012;2022-11-25T06:32:47;101099.28;;;2.65;100.00
30421;BME280;17218;54.070;10.012;2022-11-25T06:35:14;101106.00;;;2.61;100.00
30421;BME280;17218;54.070;10.012;2022-11-25T06:37:41;101111.09;;;2.61;100.00
30421;BME280;17218;54.070;10.012;2022-11-25T06:40:08;101105.22;;;2.64;100.00
30421;BME280;17218;54.070;10.012;2022-11-25T06:42:36;101105.03;;;2.58;100.00
30421;BME280;17218;54.070;10.012;2022-11-25T06:45:04;101107.63;;;2.59;100.00
30421;BME280;17218;54.070;10.012;2022-11-25T06:47:31;101120.31;;;2.56;100.00
30421;BME280;17218;54.070;10.012;2022-11-25T06:49:57;101121.34;;;2.61;100.00
30421;BME280;17218;54.070;10.012;2022-11-25T06:52:24;101124.72;;;2.60;100.00
30421;BME280;17218;54.070;10.012;2022-11-25T06:54:51;101125.44;;;2.56;100.00
30421;BME280;17218;54.070;10.012;2022-11-25T06:57:18;101132.16;;;2.53;100.00
30421;BME280;17218;54.070;10.012;2022-11-25T06:59:46;101132.81;;;2.47;100.00
30421;BME280;17218;54.070;10.012;2022-11-25T07:02:13;101131.00;;;2.44;100.00
30421;BME280;17218;54.070;10.012;2022-11-25T07:04:40;101133.06;;;2.55;100.00
30421;BME280;17218;54.070;10.012;2022-11-25T07:07:06;101132.94;;;2.52;100.00
30421;BME280;17218;54.070;10.012;2022-11-25T07:09:33;101138.13;;;2.53;100.00
30421;BME280;17218;54.070;10.012;2022-11-25T07:12:00;101137.22;;;2.51;100.00
30421;BME280;17218;54.070;10.012;2022-11-25T07:14:27;101136.28;;;2.49;100.00
30421;BME280;17218;54.070;10.012;2022-11-25T07:16:55;101135.13;;;2.39;100.00
30421;BME280;17218;54.070;10.012;2022-11-25T07:19:21;101141.81;;;2.35;100.00
30421;BME280;17218;54.070;10.012;2022-11-25T07:21:48;101137.41;;;2.31;100.00
30421;BME280;17218;54.070;10.012;2022-11-25T07:24:15;101145.56;;;2.45;100.00
30421;BME280;17218;54.070;10.012;2022-11-25T07:26:43;101138.81;;;2.47;100.00
30421;BME280;17218;54.070;10.012;2022-11-25T07:29:12;101137.94;;;2.47;100.00
30421;BME280;17218;54.070;10.012;2022-11-25T07:31:40;101139.09;;;2.57;100.00
30421;BME280;17218;54.070;10.012;2022-11-25T07:34:11;101138.69;;;2.72;100.00
30421;BME280;17218;54.070;10.012;2022-11-25T07:36:39;101148.34;;;2.79;100.00
30421;BME280;17218;54.070;10.012;2022-11-25T07:39:09;101150.19;;;2.85;100.00
30421;BME280;17218;54.070;10.012;2022-11-25T07:41:36;101157.06;;;2.86;100.00
30421;BME280;17218;54.070;10.012;2022-11-25T07:44:05;101156.19;;;2.85;100.00
30421;BME280;17218;54.070;10.012;2022-11-25T07:46:35;101166.50;;;2.89;100.00
30421;BME280;17218;54.070;10.012;2022-11-25T07:49:03;101156.63;;;3.00;100.00
30421;BME280;17218;54.070;10.012;2022-11-25T07:51:34;101169.56;;;3.04;100.00
30421;BME280;17218;54.070;10.012;2022-11-25T07:54:02;101166.28;;;3.08;100.00
30421;BME280;17218;54.070;10.012;2022-11-25T07:56:30;101168.28;;;3.19;100.00
30421;BME280;17218;54.070;10.012;2022-11-25T07:58:58;101160.59;;;3.19;100.00
30421;BME280;17218;54.070;10.012;2022-11-25T08:01:24;101154.34;;;3.09;100.00
30421;BME280;17218;54.070;10.012;2022-11-25T08:03:52;101179.75;;;3.03;100.00
30421;BME280;17218;54.070;10.012;2022-11-25T08:06:21;101168.66;;;3.02;100.00
30421;BME280;17218;54.070;10.012;2022-11-25T08:08:50;101180.09;;;3.14;100.00
30421;BME280;17218;54.070;10.012;2022-11-25T08:11:21;101184.50;;;3.18;100.00
30421;BME280;17218;54.070;10.012;2022-11-25T08:13:49;101198.19;;;3.20;100.00
30421;BME280;17218;54.070;10.012;2022-11-25T08:16:17;101193.34;;;3.29;100.00
30421;BME280;17218;54.070;10.012;2022-11-25T08:18:45;101187.47;;;3.32;100.00
30421;BME280;17218;54.070;10.012;2022-11-25T08:21:13;101195.09;;;3.30;100.00
30421;BME280;17218;54.070;10.012;2022-11-25T08:23:41;101185.66;;;3.29;100.00
30421;BME280;17218;54.070;10.012;2022-11-25T08:26:11;101182.25;;;3.29;100.00
30421;BME280;17218;54.070;10.012;2022-11-25T08:28:39;101189.59;;;3.47;100.00
30421;BME280;17218;54.070;10.012;2022-11-25T08:31:08;101184.34;;;3.42;100.00
30421;BME280;17218;54.070;10.012;2022-11-25T08:33:35;101186.81;;;3.39;100.00
30421;BME280;17218;54.070;10.012;2022-11-25T08:36:02;101193.78;;;3.43;100.00
30421;BME280;17218;54.070;10.012;2022-11-25T08:38:29;101190.50;;;3.48;100.00
30421;BME280;17218;54.070;10.012;2022-11-25T08:40:56;101187.34;;;3.58;100.00
30421;BME280;17218;54.070;10.012;2022-11-25T08:43:24;101187.31;;;3.56;100.00
30421;BME280;17218;54.070;10.012;2022-11-25T08:45:51;101177.34;;;3.66;100.00
30421;BME280;17218;54.070;10.012;2022-11-25T08:48:19;101179.59;;;3.86;100.00
30421;BME280;17218;54.070;10.012;2022-11-25T08:50:49;101179.34;;;3.78;100.00
30421;BME280;17218;54.070;10.012;2022-11-25T08:53:16;101193.78;;;3.74;100.00
30421;BME280;17218;54.070;10.012;2022-11-25T08:55:42;101186.16;;;3.77;100.00
30421;BME280;17218;54.070;10.012;2022-11-25T08:58:09;101194.75;;;3.78;100.00
30421;BME280;17218;54.070;10.012;2022-11-25T09:00:39;101192.47;;;3.89;100.00
30421;BME280;17218;54.070;10.012;2022-11-25T09:03:06;101184.16;;;3.98;100.00
30421;BME280;17218;54.070;10.012;2022-11-25T09:05:33;101186.72;;;3.98;100.00
30421;BME280;17218;54.070;10.012;2022-11-25T09:08:01;101188.50;;;4.00;100.00
30421;BME280;17218;54.070;10.012;2022-11-25T09:10:28;101185.31;;;4.09;100.00
30421;BME280;17218;54.070;10.012;2022-11-25T09:12:54;101186.31;;;4.14;100.00
30421;BME280;17218;54.070;10.012;2022-11-25T09:15:21;101182.97;;;4.17;100.00
30421;BME280;17218;54.070;10.012;2022-11-25T09:17:56;101188.13;;;4.18;100.00
30421;BME280;17218;54.070;10.012;2022-11-25T09:20:23;101175.59;;;4.29;100.00
30421;BME280;17218;54.070;10.012;2022-11-25T09:22:50;101182.53;;;4.34;100.00
30421;BME280;17218;54.070;10.012;2022-11-25T09:25:17;101184.53;;;4.46;100.00
30421;BME280;17218;54.070;10.012;2022-11-25T09:27:43;101175.13;;;4.45;100.00
30421;BME280;17218;54.070;10.012;2022-11-25T09:30:11;101181.25;;;4.51;100.00
30421;BME280;17218;54.070;10.012;2022-11-25T09:32:38;101192.66;;;4.63;100.00
30421;BME280;17218;54.070;10.012;2022-11-25T09:35:06;101186.72;;;4.64;100.00
30421;BME280;17218;54.070;10.012;2022-11-25T09:37:33;101196.03;;;4.60;100.00
30421;BME280;17218;54.070;10.012;2022-11-25T09:40:00;101201.09;;;4.59;100.00
30421;BME280;17218;54.070;10.012;2022-11-25T09:42:35;101197.06;;;4.67;100.00
30421;BME280;17218;54.070;10.012;2022-11-25T09:45:27;101199.66;;;4.69;100.00
30421;BME280;17218;54.070;10.012;2022-11-25T09:48:29;101199.56;;;4.64;100.00
30421;BME280;17218;54.070;10.012;2022-11-25T09:51:06;101198.97;;;4.76;100.00
30421;BME280;17218;54.070;10.012;2022-11-25T09:53:42;101208.50;;;4.80;100.00
30421;BME280;17218;54.070;10.012;2022-11-25T09:56:16;101205.91;;;4.80;100.00
30421;BME280;17218;54.070;10.012;2022-11-25T09:58:47;101205.94;;;4.82;100.00
30421;BME280;17218;54.070;10.012;2022-11-25T10:01:18;101216.03;;;4.74;100.00
30421;BME280;17218;54.070;10.012;2022-11-25T10:03:49;101207.53;;;4.76;100.00
30421;BME280;17218;54.070;10.012;2022-11-25T10:06:22;101214.56;;;4.84;100.00
30421;BME280;17218;54.070;10.012;2022-11-25T10:08:52;101204.56;;;4.95;100.00
30421;BME280;17218;54.070;10.012;2022-11-25T10:11:27;101208.25;;;5.06;100.00
30421;BME280;17218;54.070;10.012;2022-11-25T10:13:58;101219.34;;;5.07;100.00
30421;BME280;17218;54.070;10.012;2022-11-25T10:16:34;101216.72;;;5.04;100.00
30421;BME280;17218;54.070;10.012;2022-11-25T10:19:05;101227.97;;;5.09;100.00
30421;BME280;17218;54.070;10.012;2022-11-25T10:21:37;101222.06;;;5.11;100.00
30421;BME280;17218;54.070;10.012;2022-11-25T10:24:05;101224.81;;;5.19;100.00
30421;BME280;17218;54.070;10.012;2022-11-25T10:26:49;101223.25;;;5.28;100.00
30421;BME280;17218;54.070;10.012;2022-11-25T10:29:26;101226.09;;;5.40;100.00
30421;BME280;17218;54.070;10.012;2022-11-25T10:32:00;101214.09;;;5.39;100.00
30421;BME280;17218;54.070;10.012;2022-11-25T10:34:36;101216.63;;;5.37;100.00
30421;BME280;17218;54.070;10.012;2022-11-25T10:37:18;101220.13;;;5.40;100.00
30421;BME280;17218;54.070;10.012;2022-11-25T10:39:47;101215.69;;;5.34;100.00
30421;BME280;17218;54.070;10.012;2022-11-25T10:42:17;101212.31;;;5.36;100.00
30421;BME280;17218;54.070;10.012;2022-11-25T10:44:44;101218.09;;;5.26;100.00
30421;BME280;17218;54.070;10.012;2022-11-25T10:47:32;101213.09;;;5.32;100.00
30421;BME280;17218;54.070;10.012;2022-11-25T10:50:13;101210.69;;;5.40;100.00
30421;BME280;17218;54.070;10.012;2022-11-25T10:52:47;101226.31;;;5.49;100.00
30421;BME280;17218;54.070;10.012;2022-11-25T10:55:17;101218.53;;;5.46;100.00
30421;BME280;17218;54.070;10.012;2022-11-25T10:57:44;101227.91;;;5.44;100.00
30421;BME280;17218;54.070;10.012;2022-11-25T11:00:26;101220.94;;;5.39;100.00
30421;BME280;17218;54.070;10.012;2022-11-25T11:02:54;101226.28;;;5.48;100.00
30421;BME280;17218;54.070;10.012;2022-11-25T11:05:23;101223.97;;;5.60;100.00
30421;BME280;17218;54.070;10.012;2022-11-25T11:10:44;101229.00;;;5.54;100.00
30421;BME280;17218;54.070;10.012;2022-11-25T11:13:20;101220.56;;;5.61;100.00
30421;BME280;17218;54.070;10.012;2022-11-25T11:15:50;101219.81;;;5.66;100.00
30421;BME280;17218;54.070;10.012;2022-11-25T11:18:22;101227.88;;;5.84;100.00
30421;BME280;17218;54.070;10.012;2022-11-25T11:20:51;101232.91;;;5.78;100.00
30421;BME280;17218;54.070;10.012;2022-11-25T11:23:18;101229.56;;;5.82;100.00
30421;BME280;17218;54.070;10.012;2022-11-25T11:25:56;101231.28;;;5.83;100.00
30421;BME280;17218;54.070;10.012;2022-11-25T11:28:26;101240.94;;;5.95;100.00
30421;BME280;17218;54.070;10.012;2022-11-25T11:30:55;101239.22;;;5.94;100.00
30421;BME280;17218;54.070;10.012;2022-11-25T11:33:33;101237.72;;;6.04;100.00
30421;BME280;17218;54.070;10.012;2022-11-25T11:36:10;101240.13;;;5.96;100.00
30421;BME280;17218;54.070;10.012;2022-11-25T11:38:46;101246.06;;;5.94;100.00
30421;BME280;17218;54.070;10.012;2022-11-25T11:41:26;101238.28;;;5.89;100.00
30421;BME280;17218;54.070;10.012;2022-11-25T11:44:04;101246.00;;;5.91;100.00
30421;BME280;17218;54.070;10.012;2022-11-25T11:46:42;101241.81;;;5.96;100.00
30421;BME280;17218;54.070;10.012;2022-11-25T11:49:29;101248.63;;;5.94;100.00
30421;BME280;17218;54.070;10.012;2022-11-25T11:52:06;101245.25;;;5.95;100.00
30421;BME280;17218;54.070;10.012;2022-11-25T11:54:38;101257.41;;;6.04;100.00
30421;BME280;17218;54.070;10.012;2022-11-25T11:57:16;101245.75;;;6.20;100.00
30421;BME280;17218;54.070;10.012;2022-11-25T11:59:47;101256.78;;;6.14;100.00
30421;BME280;17218;54.070;10.012;2022-11-25T12:02:38;101252.81;;;6.30;100.00
30421;BME280;17218;54.070;10.012;2022-11-25T12:05:16;101266.06;;;6.06;100.00
30421;BME280;17218;54.070;10.012;2022-11-25T12:07:50;101261.91;;;6.14;100.00
30421;BME280;17218;54.070;10.012;2022-11-25T12:10:24;101255.97;;;6.15;100.00
30421;BME280;17218;54.070;10.012;2022-11-25T12:12:57;101260.19;;;6.13;100.00
30421;BME280;17218;54.070;10.012;2022-11-25T12:15:35;101262.88;;;6.19;100.00
30421;BME280;17218;54.070;10.012;2022-11-25T12:18:11;101254.38;;;6.24;100.00
30421;BME280;17218;54.070;10.012;2022-11-25T12:20:44;101267.19;;;6.20;100.00
30421;BME280;17218;54.070;10.012;2022-11-25T12:23:17;101266.22;;;6.14;100.00
30421;BME280;17218;54.070;10.012;2022-11-25T12:25:48;101264.28;;;6.05;100.00
30421;BME280;17218;54.070;10.012;2022-11-25T12:28:21;101260.84;;;6.03;100.00
30421;BME280;17218;54.070;10.012;2022-11-25T12:31:01;101253.16;;;6.04;100.00
30421;BME280;17218;54.070;10.012;2022-11-25T12:33:35;101266.81;;;6.03;100.00
30421;BME280;17218;54.070;10.012;2022-11-25T12:36:08;101269.50;;;6.06;100.00
30421;BME280;17218;54.070;10.012;2022-11-25T12:38:42;101258.41;;;6.09;100.00
30421;BME280;17218;54.070;10.012;2022-11-25T12:41:18;101263.72;;;6.18;100.00
30421;BME280;17218;54.070;10.012;2022-11-25T12:43:52;101256.97;;;6.25;100.00
30421;BME280;17218;54.070;10.012;2022-11-25T12:46:26;101266.81;;;6.45;100.00
30421;BME280;17218;54.070;10.012;2022-11-25T12:48:57;101264.22;;;6.43;100.00
30421;BME280;17218;54.070;10.012;2022-11-25T12:51:35;101270.28;;;6.47;100.00
30421;BME280;17218;54.070;10.012;2022-11-25T12:54:16;101265.13;;;6.47;100.00
30421;BME280;17218;54.070;10.012;2022-11-25T12:57:02;101266.56;;;6.32;100.00